Météo Nord-Pas-de-Calais   La météo au plus près de chez vous

Station météorologique

Observations météo à Tregunc (29293)

29293001 25 m Dernier relevé à 05:48
17.4°C
Humidité 92 % Vent 16.6 km/h

Journée consultée

Lundi 31 Août 2026

Synthèse de la journée

Périodes de référence en UTC

Température maximale

22.1°C

à 17:00

06h 06h

Température minimale

16.9°C

à 04:06

18h 18h

Rafale maximale

44 km/h

à 04:00

00h 00h

Précipitations

7.7 mm

Cumul quotidien

06h 06h

Graphiques de la journée

Heure locale Réduire

Données détaillées

Relevés météo

Pas de 6 minutes Afficher les relevés infra-horaires
Relevés météo détaillés à Tregunc pour le Lundi 31 Août 2026
Heure Température °C Point de rosée °C Humidité % Vent moyen (raf.), km/h Précipitations mm
05:48 17.4 °C 15.2 °C 87 % 15 km/h (27 km/h) 0 mm0 mm
05:42 17.3 °C 14.9 °C 86 % 17 km/h (29 km/h) 0 mm0 mm
05:36 17.3 °C 14.8 °C 85 % 18 km/h (29 km/h) 0 mm0 mm
05:30 17.3 °C 14.8 °C 85 % 17 km/h (28 km/h) 0 mm0 mm
05:24 17.3 °C 14.8 °C 85 % 18 km/h (30 km/h) 0 mm0 mm
05:18 17.3 °C 14.8 °C 85 % 18 km/h (30 km/h) 0 mm0 mm
05:12 17.4 °C 15.2 °C 87 % 21 km/h (38 km/h) 0 mm0 mm
05:06 17.5 °C 15.7 °C 89 % 21 km/h (38 km/h) 0 mm0 mm
05:00 17.5 °C 16 °C 91 % 18 km/h (26 km/h) 0 mm0.2 mm
04:54 17.4 °C 15.9 °C 91 % 18 km/h (27 km/h) 0 mm0 mm
04:48 17.3 °C 16 °C 92 % 17 km/h (27 km/h) 0 mm0 mm
04:42 17.2 °C 15.9 °C 92 % 15 km/h (24 km/h) 0 mm0 mm
04:36 17.2 °C 15.9 °C 92 % 18 km/h (30 km/h) 0 mm0 mm
04:30 17.2 °C 15.9 °C 92 % 20 km/h (32 km/h) 0 mm0 mm
04:24 17.2 °C 15.9 °C 92 % 21 km/h (33 km/h) 0 mm0 mm
04:18 17 °C 15.9 °C 93 % 17 km/h (27 km/h) 0 mm0 mm
04:12 16.9 °C 15.8 °C 93 % 19 km/h (31 km/h) 0 mm0 mm
04:06 16.9 °C 15.4 °C 91 % 24 km/h (44 km/h) 0.2 mm0 mm
04:00 17.2 °C 14.8 °C 86 % 25 km/h (44 km/h) 0 mm0.2 mm
03:54 17.4 °C 15.4 °C 88 % 24 km/h (43 km/h) 0.2 mm0 mm
03:48 18.1 °C 15.9 °C 87 % 21 km/h (43 km/h) 0 mm0 mm
03:42 18.1 °C 15.7 °C 86 % 19 km/h (34 km/h) 0 mm0 mm
03:36 18 °C 15.6 °C 86 % 19 km/h (31 km/h) 0 mm0 mm
03:30 17.9 °C 15.7 °C 87 % 17 km/h (26 km/h) 0 mm0 mm
03:24 18 °C 15.8 °C 87 % 18 km/h (26 km/h) 0 mm0 mm
03:18 18 °C 15.8 °C 87 % 19 km/h (32 km/h) 0 mm0 mm
03:12 18.1 °C 16.1 °C 88 % 18 km/h (29 km/h) 0 mm0 mm
03:06 18.1 °C 15.9 °C 87 % 17 km/h (31 km/h) 0 mm0 mm
03:00 18.1 °C 15.7 °C 86 % 18 km/h (31 km/h) 0 mm0 mm
02:54 18 °C 15.4 °C 85 % 18 km/h (27 km/h) 0 mm0 mm
02:48 17.9 °C 15.2 °C 84 % 20 km/h (32 km/h) 0 mm0 mm
02:42 17.9 °C 15.3 °C 85 % 21 km/h (32 km/h) 0 mm0 mm
02:36 17.9 °C 15.3 °C 85 % 21 km/h (36 km/h) 0 mm0 mm
02:30 17.8 °C 15.2 °C 85 % 20 km/h (36 km/h) 0 mm0 mm
02:24 17.7 °C 15.3 °C 86 % 18 km/h (31 km/h) 0 mm0 mm
02:18 17.6 °C 15.2 °C 86 % 17 km/h (26 km/h) 0 mm0 mm
02:12 17.5 °C 15.1 °C 86 % 18 km/h (25 km/h) 0 mm0 mm
02:06 17.6 °C 15 °C 85 % 18 km/h (26 km/h) 0 mm0 mm
02:00 17.5 °C 14.8 °C 84 % 20 km/h (33 km/h) 0 mm0.2 mm
01:54 17.5 °C 14.6 °C 83 % 24 km/h (48 km/h) 0 mm0 mm
01:48 17.6 °C 14.9 °C 84 % 25 km/h (48 km/h) 0 mm0 mm
01:42 17.6 °C 15 °C 85 % 24 km/h (40 km/h) 0 mm0 mm
01:36 17.3 °C 14.9 °C 86 % 25 km/h (40 km/h) 0 mm0 mm
01:30 17.7 °C 15.9 °C 89 % 21 km/h (40 km/h) 0.2 mm0 mm
01:24 18.2 °C 16.4 °C 89 % 19 km/h (27 km/h) 0 mm0 mm
01:18 18.1 °C 16.1 °C 88 % 18 km/h (26 km/h) 0 mm0 mm
01:12 18 °C 16 °C 88 % 18 km/h (27 km/h) 0 mm0 mm
01:06 18 °C 16 °C 88 % 18 km/h (27 km/h) 0 mm0 mm
01:00 18 °C 16.2 °C 89 % 18 km/h (27 km/h) 0 mm0 mm
00:54 18 °C 16.2 °C 89 % 19 km/h (33 km/h) 0 mm0 mm
00:48 18 °C 16.2 °C 89 % 19 km/h (30 km/h) 0 mm0 mm
00:42 18.1 °C 16.3 °C 89 % 19 km/h (30 km/h) 0 mm0 mm
00:36 18.1 °C 16.3 °C 89 % 22 km/h (36 km/h) 0 mm0 mm
00:30 18 °C 16 °C 88 % 23 km/h (36 km/h) 0 mm0 mm
00:24 18 °C 16 °C 88 % 21 km/h (32 km/h) 0 mm0 mm
00:18 18 °C 16 °C 88 % 21 km/h (31 km/h) 0 mm0 mm
00:12 18 °C 16 °C 88 % 21 km/h (31 km/h) 0 mm0 mm
00:06 18 °C 16 °C 88 % 22 km/h (34 km/h) 0 mm0 mm
00:00 18 °C 16.2 °C 89 % 24 km/h (36 km/h) 0 mm0 mm

Données via Météo-France

Relevés météo à Tregunc

Cette page rassemble les observations de la station de Tregunc : température, humidité, vent, précipitations et pression atmosphérique. Les graphiques facilitent le suivi de la journée, tandis que le tableau donne accès aux mesures horaires et infra-horaires disponibles.

Pour replacer ces mesures dans leur contexte, consultez la climatologie de Tregunc ainsi que ses normales et records. Retrouvez aussi la carte des observations météo en temps réel.